Time;durP1;ratioP1;P1;durP2;ratioP2;P2;SDS_P1;SDS_P2;PMS_P1;PMS_P2;Temp;Humidity;BMP_temperature;BMP_pressure;BME280_temperature;BME280_humidity;BME280_pressure;Samples;Min_cycle;Max_cycle;Signal;HPM_P1;HPM_P2
2021/11/27 00:01:48;;;;;;;9.40;4.10;;;;;;;5.99;73.77;96369.44;102804;1319;99599;-73
2021/11/27 00:04:21;;;;;;;9.90;3.40;;;;;;;6.00;73.91;96367.06;102689;1318;98411;-74
2021/11/27 00:06:49;;;;;;;9.10;4.10;;;;;;;6.01;73.85;96366.61;102786;1325;111626;-74
2021/11/27 00:09:20;;;;;;;9.10;4.20;;;;;;;6.03;73.87;96365.21;102775;1323;97912;-76
2021/11/27 00:11:48;;;;;;;9.80;4.40;;;;;;;6.02;73.79;96364.23;102780;1319;107855;-75
2021/11/27 00:14:16;;;;;;;9.10;4.20;;;;;;;6.02;73.87;96364.77;103483;1319;98016;-74
2021/11/27 00:16:45;;;;;;;9.50;4.40;;;;;;;6.03;73.77;96365.86;103066;1319;98020;-75
2021/11/27 00:19:16;;;;;;;13.70;5.00;;;;;;;6.02;73.71;96369.89;103030;1322;111285;-74
2021/11/27 00:21:46;;;;;;;10.30;4.50;;;;;;;6.01;73.85;96370.85;102980;1326;97913;-76
2021/11/27 00:24:16;;;;;;;10.20;4.50;;;;;;;6.01;73.83;96374.89;102964;1322;107846;-75
2021/11/27 00:26:45;;;;;;;10.20;4.30;;;;;;;6.01;73.84;96378.23;102998;1319;97990;-76
2021/11/27 00:29:14;;;;;;;13.40;4.70;;;;;;;6.01;73.92;96382.25;103055;1325;98330;-76
2021/11/27 00:31:46;;;;;;;10.60;4.80;;;;;;;6.00;73.98;96385.70;103019;1319;112173;-77
2021/11/27 00:34:15;;;;;;;8.50;4.50;;;;;;;5.99;73.97;96394.23;103009;1322;98004;-75
2021/11/27 00:36:44;;;;;;;12.90;5.00;;;;;;;5.97;74.14;96397.20;102800;1322;107908;-76
2021/11/27 00:39:17;;;;;;;10.20;4.80;;;;;;;5.97;74.03;96391.54;102805;1326;97962;-74
2021/11/27 00:41:46;;;;;;;12.20;4.90;;;;;;;5.98;74.13;96384.79;102828;1320;97875;-75
2021/11/27 00:44:16;;;;;;;12.40;4.90;;;;;;;5.97;74.00;96380.33;102838;1319;111672;-75
2021/11/27 00:46:46;;;;;;;13.70;5.40;;;;;;;5.95;74.03;96386.46;102892;1318;95280;-73
2021/11/27 00:49:14;;;;;;;10.10;4.70;;;;;;;5.96;73.99;96390.99;102822;1319;107702;-73
2021/11/27 00:51:46;;;;;;;13.40;5.90;;;;;;;5.94;74.20;96400.48;102855;1322;98106;-72
2021/11/27 00:54:17;;;;;;;11.70;5.10;;;;;;;5.93;74.27;96404.69;102861;1322;95281;-73
2021/11/27 00:56:46;;;;;;;14.60;5.90;;;;;;;5.91;74.15;96407.07;102788;1320;111130;-72
2021/11/27 00:59:17;;;;;;;15.50;6.00;;;;;;;5.91;74.16;96408.52;102962;1319;95254;-73
2021/11/27 01:01:46;;;;;;;15.30;6.90;;;;;;;5.89;74.28;96410.10;102803;1321;106163;-73
2021/11/27 01:04:14;;;;;;;16.40;7.10;;;;;;;5.88;74.32;96410.90;102905;1319;98050;-72
2021/11/27 01:06:42;;;;;;;19.00;8.00;;;;;;;5.86;74.21;96414.05;102936;1319;97927;-72
2021/11/27 01:09:17;;;;;;;20.30;9.30;;;;;;;5.87;74.29;96421.58;102896;1319;111516;-73
2021/11/27 01:11:50;;;;;;;26.20;12.60;;;;;;;5.86;74.23;96426.98;102787;1323;96024;-72
2021/11/27 01:14:24;;;;;;;25.80;13.50;;;;;;;5.80;74.28;96428.71;102729;1319;107916;-72
2021/11/27 01:17:02;;;;;;;26.10;13.20;;;;;;;5.75;74.26;96430.80;102831;1322;98005;-71
2021/11/27 01:19:32;;;;;;;24.80;13.00;;;;;;;5.71;74.15;96432.73;102943;1319;97940;-73
2021/11/27 01:22:05;;;;;;;26.40;13.50;;;;;;;5.65;74.36;96435.06;102943;1325;111484;-72
2021/11/27 01:24:33;;;;;;;21.60;11.00;;;;;;;5.60;74.23;96438.49;102925;1319;98549;-73
2021/11/27 01:27:03;;;;;;;25.90;13.40;;;;;;;5.58;74.32;96437.70;102903;1319;108028;-74
2021/11/27 01:29:40;;;;;;;26.30;14.30;;;;;;;5.52;74.26;96435.57;102680;1320;98440;-73
2021/11/27 01:32:12;;;;;;;24.80;12.80;;;;;;;5.47;74.19;96435.14;102778;1324;96478;-73
2021/11/27 01:34:42;;;;;;;27.80;15.20;;;;;;;5.45;74.18;96444.16;102892;1319;111561;-74
2021/11/27 01:37:12;;;;;;;25.60;13.70;;;;;;;5.42;74.27;96444.45;102795;1323;97972;-73
2021/11/27 01:39:43;;;;;;;26.40;13.90;;;;;;;5.38;74.29;96452.84;103065;1319;106900;-72
2021/11/27 01:42:14;;;;;;;27.40;14.10;;;;;;;5.34;74.28;96454.60;103008;1318;97927;-73
2021/11/27 01:44:43;;;;;;;25.60;14.40;;;;;;;5.31;74.19;96453.73;102798;1322;97861;-73
2021/11/27 01:47:14;;;;;;;26.60;13.30;;;;;;;5.29;74.25;96451.57;102865;1318;111549;-73
2021/11/27 01:49:41;;;;;;;26.20;13.60;;;;;;;5.26;74.21;96459.42;102818;1318;97922;-73
2021/11/27 01:52:13;;;;;;;26.20;13.30;;;;;;;5.22;74.31;96463.63;102741;1322;107906;-74
2021/11/27 01:54:41;;;;;;;27.30;14.20;;;;;;;5.17;74.26;96463.73;102770;1322;97985;-74
2021/11/27 01:57:09;;;;;;;27.30;13.60;;;;;;;5.14;74.35;96468.80;102841;1322;98015;-73
2021/11/27 01:59:42;;;;;;;26.60;14.60;;;;;;;5.10;74.27;96469.16;102834;1325;111596;-72
2021/11/27 02:02:13;;;;;;;29.00;14.50;;;;;;;5.09;74.34;96468.90;102798;1325;95897;-74
2021/11/27 02:04:43;;;;;;;25.80;12.40;;;;;;;5.07;74.38;96469.75;102572;1320;107698;-73
2021/11/27 02:07:15;;;;;;;27.20;14.80;;;;;;;5.04;74.33;96474.45;102681;1325;98040;-73
2021/11/27 02:09:43;;;;;;;27.60;14.10;;;;;;;5.00;74.30;96480.20;102817;1318;97843;-73
2021/11/27 02:12:14;;;;;;;25.20;13.80;;;;;;;4.99;74.32;96481.89;102824;1322;111478;-73
2021/11/27 02:14:44;;;;;;;28.60;14.50;;;;;;;4.99;74.33;96485.65;102902;1321;97982;-74
2021/11/27 02:17:21;;;;;;;26.40;13.70;;;;;;;4.98;74.34;96483.80;102904;1324;108575;-74
2021/11/27 02:19:49;;;;;;;24.70;13.80;;;;;;;4.97;74.33;96487.74;102822;1321;97912;-73
2021/11/27 02:22:20;;;;;;;26.80;13.80;;;;;;;4.96;74.25;96492.70;102924;1319;96627;-73
2021/11/27 02:24:51;;;;;;;26.10;14.10;;;;;;;4.93;74.26;96497.39;102860;1319;111537;-73
2021/11/27 02:27:23;;;;;;;28.80;15.20;;;;;;;4.87;74.30;96496.01;102893;1325;97502;-74
2021/11/27 02:29:54;;;;;;;24.50;13.30;;;;;;;4.82;74.34;96502.92;102951;1325;107556;-73
2021/11/27 02:32:25;;;;;;;25.70;13.90;;;;;;;4.78;74.34;96505.55;102812;1322;97941;-73
2021/11/27 02:34:53;;;;;;;25.90;12.20;;;;;;;4.76;74.39;96511.53;102838;1325;98027;-73
2021/11/27 02:37:23;;;;;;;23.50;11.20;;;;;;;4.73;74.43;96516.38;102944;1322;111473;-73
2021/11/27 02:39:54;;;;;;;23.00;11.10;;;;;;;4.68;74.22;96518.70;102932;1320;97788;-75
2021/11/27 02:42:26;;;;;;;24.40;12.10;;;;;;;4.65;74.32;96520.45;102828;1325;107823;-73
2021/11/27 02:44:53;;;;;;;24.40;10.90;;;;;;;4.63;74.28;96522.86;102655;1321;98014;-73
2021/11/27 02:47:21;;;;;;;22.00;10.20;;;;;;;4.62;74.31;96517.84;102880;1325;97926;-72
2021/11/27 02:49:49;;;;;;;22.90;10.10;;;;;;;4.60;74.44;96521.20;102902;1319;111483;-72
2021/11/27 02:52:21;;;;;;;22.50;9.40;;;;;;;4.54;74.26;96524.52;102610;1318;145727;-71
2021/11/27 02:54:49;;;;;;;22.50;10.70;;;;;;;4.47;74.31;96524.50;102790;1322;107905;-73
2021/11/27 02:57:16;;;;;;;24.70;10.00;;;;;;;4.40;74.28;96531.25;102852;1323;98005;-73
2021/11/27 02:59:44;;;;;;;21.40;9.30;;;;;;;4.37;74.25;96529.68;102859;1322;97910;-73
2021/11/27 03:02:12;;;;;;;20.60;9.00;;;;;;;4.35;74.30;96536.41;103050;1319;111572;-73
2021/11/27 03:04:49;;;;;;;23.10;9.20;;;;;;;4.30;74.28;96528.06;102847;1322;97995;-73
2021/11/27 03:07:22;;;;;;;23.20;9.60;;;;;;;4.26;74.28;96533.35;102952;1325;107753;-74
2021/11/27 03:09:53;;;;;;;22.10;8.60;;;;;;;4.22;74.19;96536.86;103067;1318;97765;-74
2021/11/27 03:12:21;;;;;;;23.80;9.20;;;;;;;4.19;74.22;96540.39;102932;1319;95902;-73
2021/11/27 03:14:49;;;;;;;21.60;9.80;;;;;;;4.15;74.17;96534.05;102781;1325;112603;-73
2021/11/27 03:17:20;;;;;;;25.60;10.40;;;;;;;4.13;74.14;96529.87;102838;1325;98036;-75
2021/11/27 03:19:48;;;;;;;24.80;10.50;;;;;;;4.09;74.10;96530.77;102794;1322;107910;-75
2021/11/27 03:22:22;;;;;;;22.10;10.10;;;;;;;4.05;74.08;96538.98;102950;1322;96103;-75
2021/11/27 03:24:53;;;;;;;23.90;9.80;;;;;;;4.02;74.05;96533.08;102957;1325;97867;-75
2021/11/27 03:27:21;;;;;;;26.00;10.60;;;;;;;3.99;73.95;96537.70;102752;1319;111045;-73
2021/11/27 03:29:49;;;;;;;25.40;10.80;;;;;;;3.98;74.11;96540.13;102922;1325;97906;-74
2021/11/27 03:32:21;;;;;;;22.30;9.00;;;;;;;3.97;73.84;96547.77;102867;1324;107917;-73
2021/11/27 03:34:52;;;;;;;23.40;9.70;;;;;;;3.96;74.05;96548.84;102824;1325;97899;-75
2021/11/27 03:37:20;;;;;;;24.20;10.40;;;;;;;3.97;74.07;96553.00;102725;1325;98023;-74
2021/11/27 03:39:48;;;;;;;24.40;9.60;;;;;;;3.96;74.09;96556.27;102755;1323;111556;-73
2021/11/27 03:42:19;;;;;;;23.80;10.70;;;;;;;3.93;74.11;96554.87;102770;1325;98616;-74
2021/11/27 03:44:51;;;;;;;26.60;11.50;;;;;;;3.87;74.05;96557.69;102722;1326;107456;-74
2021/11/27 03:47:18;;;;;;;27.70;13.50;;;;;;;3.81;74.12;96560.86;102849;1319;97909;-73
2021/11/27 03:49:51;;;;;;;31.00;13.30;;;;;;;3.76;73.75;96559.18;102775;1325;97902;-73
2021/11/27 03:52:23;;;;;;;;;;;;;;;3.71;73.90;96568.87;102861;1321;111531;-74
2021/11/27 03:54:54;;;;;;;30.80;14.70;;;;;;;3.61;73.84;96577.10;102773;1325;97942;-75
2021/11/27 03:57:22;;;;;;;31.80;13.90;;;;;;;3.50;73.85;96577.46;102739;1326;108548;-74
2021/11/27 03:59:50;;;;;;;27.80;13.80;;;;;;;3.43;73.69;96585.40;102740;1322;97909;-73
2021/11/27 04:02:18;;;;;;;28.80;12.70;;;;;;;3.39;74.01;96588.52;102872;1320;96106;-75
2021/11/27 04:04:50;;;;;;;30.40;12.80;;;;;;;3.38;73.81;96591.92;102663;1326;111528;-73
2021/11/27 04:07:18;;;;;;;26.70;11.60;;;;;;;3.36;74.08;96594.90;102965;1322;98014;-74
2021/11/27 04:09:46;;;;;;;26.40;11.60;;;;;;;3.33;73.86;96601.67;102791;1324;107786;-73
2021/11/27 04:12:14;;;;;;;25.20;11.50;;;;;;;3.30;74.02;96605.04;102935;1323;97976;-72
2021/11/27 04:14:42;;;;;;;24.90;10.40;;;;;;;3.30;73.94;96608.75;102793;1325;97939;-72
2021/11/27 04:17:13;;;;;;;25.40;11.50;;;;;;;3.28;73.71;96612.35;102746;1325;111114;-72
2021/11/27 04:19:41;;;;;;;27.70;10.60;;;;;;;3.29;73.89;96616.63;102838;1323;97996;-72
2021/11/27 04:22:10;;;;;;;28.80;11.60;;;;;;;3.32;73.66;96622.02;102797;1325;107851;-75
2021/11/27 04:24:42;;;;;;;25.00;10.90;;;;;;;3.34;73.87;96626.75;102711;1325;98013;-72
2021/11/27 04:27:09;;;;;;;28.30;10.90;;;;;;;3.36;73.92;96626.04;102747;1319;97881;-73
2021/11/27 04:29:37;;;;;;;26.80;11.80;;;;;;;3.40;73.57;96635.37;102635;1327;111583;-73
2021/11/27 04:32:05;;;;;;;24.10;10.50;;;;;;;3.41;73.81;96635.71;102724;1324;97772;-74
2021/11/27 04:34:36;;;;;;;27.40;11.30;;;;;;;3.41;73.77;96634.91;102774;1320;106764;-74
2021/11/27 04:37:09;;;;;;;28.30;11.60;;;;;;;3.43;73.95;96641.61;102867;1324;97908;-72
2021/11/27 04:39:44;;;;;;;24.50;10.80;;;;;;;3.42;73.84;96644.54;102857;1326;98059;-72
2021/11/27 04:42:12;;;;;;;24.50;10.20;;;;;;;3.41;73.82;96643.36;102687;1320;111347;-74
2021/11/27 04:44:39;;;;;;;24.20;10.00;;;;;;;3.39;73.76;96645.46;102547;1325;97969;-73
2021/11/27 04:47:08;;;;;;;25.20;9.70;;;;;;;3.35;73.79;96657.68;102731;1320;107959;-74
2021/11/27 04:49:39;;;;;;;22.00;9.20;;;;;;;3.33;73.93;96680.09;102775;1320;95280;-74
2021/11/27 04:52:10;;;;;;;21.80;9.60;;;;;;;3.32;73.71;96690.59;102849;1325;97913;-73
2021/11/27 04:54:41;;;;;;;22.10;9.30;;;;;;;3.29;73.65;96696.20;103036;1319;111497;-75
2021/11/27 04:57:10;;;;;;;24.90;9.60;;;;;;;3.20;73.47;96701.50;103061;1320;98370;-72
2021/11/27 04:59:41;;;;;;;21.40;10.10;;;;;;;3.13;73.51;96707.79;103024;1324;107901;-74
2021/11/27 05:02:11;;;;;;;25.60;9.90;;;;;;;3.07;73.60;96715.28;102931;1326;97986;-72
2021/11/27 05:04:42;;;;;;;22.50;9.80;;;;;;;2.99;73.37;96719.61;102776;1320;97931;-73
2021/11/27 05:07:13;;;;;;;23.10;11.00;;;;;;;2.89;73.22;96733.85;102774;1327;111509;-73
2021/11/27 05:09:41;;;;;;;24.80;9.50;;;;;;;2.78;73.46;96737.33;102884;1327;97979;-74
2021/11/27 05:12:10;;;;;;;23.90;11.20;;;;;;;2.74;73.38;96742.77;102850;1324;107855;-73
2021/11/27 05:14:38;;;;;;;24.60;10.90;;;;;;;2.68;73.37;96741.45;102657;1319;97999;-73
2021/11/27 05:17:06;;;;;;;26.00;11.30;;;;;;;2.61;73.28;96745.33;102690;1325;97986;-73
2021/11/27 05:19:35;;;;;;;24.60;11.10;;;;;;;2.57;73.31;96747.21;102942;1320;111087;-73
2021/11/27 05:22:05;;;;;;;25.70;11.60;;;;;;;2.52;73.42;96755.79;102804;1325;98632;-75
2021/11/27 05:24:33;;;;;;;22.00;10.70;;;;;;;2.47;73.34;96762.96;102789;1320;107630;-73
2021/11/27 05:27:02;;;;;;;26.90;12.50;;;;;;;2.44;73.56;96773.51;102776;1322;96638;-74
2021/11/27 05:29:33;;;;;;;27.50;13.10;;;;;;;2.39;73.40;96768.15;102777;1325;95300;-75
2021/11/27 05:32:19;;;;;;;28.00;13.30;;;;;;;2.37;73.58;96771.73;102764;1325;111487;-74
2021/11/27 05:34:54;;;;;;;26.40;12.90;;;;;;;2.37;73.21;96785.74;102801;1320;95422;-74
2021/11/27 05:37:25;;;;;;;28.00;13.10;;;;;;;2.35;73.34;96794.52;102833;1322;107744;-74
2021/11/27 05:39:52;;;;;;;27.80;14.50;;;;;;;2.31;73.27;96801.98;102889;1326;95376;-72
2021/11/27 05:42:23;;;;;;;27.90;14.20;;;;;;;2.29;73.55;96810.73;102836;1320;98631;-72
2021/11/27 05:44:56;;;;;;;26.60;13.70;;;;;;;2.27;73.37;96802.65;102800;1323;111519;-74
2021/11/27 05:47:24;;;;;;;28.10;13.60;;;;;;;2.25;73.53;96805.61;102975;1325;97902;-74
2021/11/27 05:49:54;;;;;;;24.70;12.40;;;;;;;2.23;73.54;96804.46;102863;1320;107697;-73
2021/11/27 05:52:32;;;;;;;27.70;12.30;;;;;;;2.22;73.44;96808.55;102955;1325;98033;-73
2021/11/27 05:55:03;;;;;;;29.30;13.40;;;;;;;2.21;73.19;96806.94;103021;1319;97962;-72
2021/11/27 05:57:31;;;;;;;29.00;12.80;;;;;;;2.18;73.43;96801.34;103024;1319;111235;-73
2021/11/27 06:00:00;;;;;;;26.60;12.70;;;;;;;2.16;73.22;96804.64;103025;1319;97877;-73
2021/11/27 06:02:27;;;;;;;23.90;11.50;;;;;;;2.16;73.15;96807.32;103006;1325;107853;-75
2021/11/27 06:04:55;;;;;;;22.80;10.80;;;;;;;2.14;73.23;96813.05;103010;1324;97928;-72
2021/11/27 06:07:23;;;;;;;26.80;13.60;;;;;;;2.11;73.42;96813.11;103040;1319;95923;-73
2021/11/27 06:09:51;;;;;;;27.40;12.90;;;;;;;2.09;73.53;96815.98;102914;1322;112541;-73
2021/11/27 06:12:19;;;;;;;25.70;12.30;;;;;;;2.08;73.44;96816.23;103060;1319;97903;-73
2021/11/27 06:14:48;;;;;;;26.50;12.60;;;;;;;2.08;73.52;96818.70;103047;1318;108000;-72
2021/11/27 06:17:16;;;;;;;27.50;12.30;;;;;;;2.07;73.25;96827.48;102986;1325;97056;-72
2021/11/27 06:19:51;;;;;;;26.80;13.00;;;;;;;2.07;73.24;96828.74;102947;1325;97900;-74
2021/11/27 06:22:22;;;;;;;27.50;13.30;;;;;;;2.05;73.64;96833.41;103003;1319;111532;-74
2021/11/27 06:24:53;;;;;;;29.60;14.40;;;;;;;2.05;73.21;96843.59;103060;1320;98007;-76
2021/11/27 06:27:21;;;;;;;29.10;13.50;;;;;;;2.03;73.22;96848.77;102904;1320;105537;-74
2021/11/27 06:29:55;;;;;;;29.60;13.90;;;;;;;2.02;73.03;96855.56;103026;1319;98614;-74
2021/11/27 06:32:23;;;;;;;25.10;12.60;;;;;;;2.01;73.30;96863.94;102923;1320;98015;-75
2021/11/27 06:34:54;;;;;;;25.60;12.40;;;;;;;2.02;73.50;96865.85;102933;1319;111290;-77
2021/11/27 06:37:26;;;;;;;26.20;12.60;;;;;;;2.02;73.25;96873.30;102893;1325;97856;-72
2021/11/27 06:40:11;;;;;;;27.70;12.90;;;;;;;2.02;73.30;96867.80;102871;1322;106860;-71
2021/11/27 06:42:39;;;;;;;26.40;13.10;;;;;;;2.00;73.27;96871.06;102783;1320;97901;-72
2021/11/27 06:45:09;;;;;;;30.00;14.60;;;;;;;1.99;73.14;96880.70;102837;1322;95313;-72
2021/11/27 06:47:37;;;;;;;28.50;14.10;;;;;;;2.01;73.21;96882.54;103051;1322;110401;-73
2021/11/27 06:50:05;;;;;;;28.80;14.60;;;;;;;2.01;73.48;96882.84;102992;1319;97823;-74
2021/11/27 06:52:33;;;;;;;27.80;13.40;;;;;;;2.04;73.41;96884.77;102788;1318;107838;-73
2021/11/27 06:55:01;;;;;;;27.00;13.30;;;;;;;2.04;73.27;96883.70;102825;1325;98018;-73
2021/11/27 06:57:29;;;;;;;25.10;12.70;;;;;;;2.02;73.18;96891.55;102735;1320;97850;-72
2021/11/27 06:59:57;;;;;;;27.40;13.10;;;;;;;2.01;73.46;96885.84;102762;1321;112518;-72
2021/11/27 07:02:25;;;;;;;28.80;14.20;;;;;;;1.98;73.13;96890.06;102858;1319;98006;-74
2021/11/27 07:04:52;;;;;;;27.80;14.20;;;;;;;1.98;73.35;96895.89;102826;1325;107881;-73
2021/11/27 07:07:20;;;;;;;29.80;15.50;;;;;;;1.96;73.14;96899.29;102883;1319;97908;-74
2021/11/27 07:09:48;;;;;;;32.80;16.80;;;;;;;1.97;73.19;96900.30;102821;1322;98019;-72
2021/11/27 07:12:16;;;;;;;31.10;14.80;;;;;;;1.98;73.32;96900.39;102745;1324;111496;-74
2021/11/27 07:14:44;;;;;;;30.00;16.20;;;;;;;1.96;73.06;96907.02;102849;1318;97882;-82
2021/11/27 07:17:13;;;;;;;30.90;16.40;;;;;;;1.92;73.13;96906.36;103109;1320;106397;-75
2021/11/27 07:19:43;;;;;;;33.90;17.30;;;;;;;1.91;73.18;96908.77;103068;1324;99128;-73
2021/11/27 07:22:11;;;;;;;31.10;16.70;;;;;;;1.90;73.16;96910.91;103073;1319;95321;-75
2021/11/27 07:24:39;;;;;;;33.70;18.40;;;;;;;1.88;73.12;96908.45;102839;1322;111590;-73
2021/11/27 07:27:07;;;;;;;35.10;19.40;;;;;;;1.88;73.13;96908.96;102944;1325;97925;-75
2021/11/27 07:29:39;;;;;;;37.20;20.50;;;;;;;1.89;73.19;96908.33;103124;1319;107975;-75
2021/11/27 07:32:10;;;;;;;35.10;19.50;;;;;;;1.93;73.26;96913.69;102890;1325;97972;-72
2021/11/27 07:34:38;;;;;;;34.40;18.30;;;;;;;1.96;73.15;96918.73;102996;1322;97879;-72
2021/11/27 07:37:06;;;;;;;36.50;19.50;;;;;;;2.00;73.50;96920.91;102894;1325;111585;-72
2021/11/27 07:39:38;;;;;;;36.00;19.80;;;;;;;2.11;73.51;96930.02;102846;1325;98031;-72
2021/11/27 07:42:07;;;;;;;35.80;19.70;;;;;;;2.15;73.42;96932.77;102701;1320;108121;-70
2021/11/27 07:44:34;;;;;;;36.80;19.00;;;;;;;2.17;73.46;96932.77;102927;1320;97972;-71
2021/11/27 07:47:03;;;;;;;35.80;19.20;;;;;;;2.19;73.59;96934.38;102921;1318;95245;-71
2021/11/27 07:49:30;;;;;;;34.60;18.90;;;;;;;2.22;73.37;96936.23;102884;1318;111379;-72
2021/11/27 07:51:59;;;;;;;36.30;19.20;;;;;;;2.24;73.39;96939.77;102902;1319;97968;-70
2021/11/27 07:54:26;;;;;;;34.30;18.00;;;;;;;2.25;73.30;96939.89;102793;1320;108012;-69
2021/11/27 07:56:56;;;;;;;38.50;20.60;;;;;;;2.27;73.48;96934.81;102731;1318;98323;-71
2021/11/27 07:59:25;;;;;;;37.00;18.70;;;;;;;2.27;73.45;96932.19;102829;1319;96084;-70
2021/11/27 08:01:52;;;;;;;35.10;19.30;;;;;;;2.29;73.51;96931.31;102652;1318;111628;-70
2021/11/27 08:04:20;;;;;;;31.40;16.60;;;;;;;2.32;73.57;96937.24;102746;1322;96661;-70
2021/11/27 08:06:48;;;;;;;31.90;17.50;;;;;;;2.32;73.29;96943.92;102831;1318;107839;-73
2021/11/27 08:09:16;;;;;;;32.00;16.00;;;;;;;2.34;73.62;96948.48;102836;1318;95293;-72
2021/11/27 08:11:44;;;;;;;31.40;16.20;;;;;;;2.37;73.54;96950.02;102902;1318;97909;-73
2021/11/27 08:14:12;;;;;;;31.60;16.00;;;;;;;2.41;73.28;96958.85;102884;1318;111571;-73
2021/11/27 08:16:40;;;;;;;31.60;17.40;;;;;;;2.43;73.64;96957.98;102740;1322;95226;-68
2021/11/27 08:19:08;;;;;;;32.10;17.20;;;;;;;2.45;73.39;96957.83;102836;1318;107935;-70
2021/11/27 08:21:36;;;;;;;30.10;16.60;;;;;;;2.49;73.56;96957.19;102776;1319;96509;-68
2021/11/27 08:24:04;;;;;;;32.20;16.50;;;;;;;2.54;73.51;96958.09;102871;1318;97908;-69
2021/11/27 08:26:32;;;;;;;33.30;17.00;;;;;;;2.56;73.64;96954.41;102752;1319;112123;-69
2021/11/27 08:29:00;;;;;;;35.20;19.40;;;;;;;2.59;73.39;96957.16;102615;1321;97907;-71
2021/11/27 08:31:28;;;;;;;34.70;17.30;;;;;;;2.66;73.08;96960.64;102635;1321;107885;-72
2021/11/27 08:33:57;;;;;;;33.50;17.70;;;;;;;2.73;73.17;96963.46;102793;1319;97934;-71
2021/11/27 08:36:25;;;;;;;35.50;18.40;;;;;;;2.77;73.37;96962.80;102750;1320;95300;-70
2021/11/27 08:38:53;;;;;;;34.00;18.50;;;;;;;2.84;73.40;96960.25;102812;1318;109759;-71
2021/11/27 08:41:21;;;;;;;33.80;18.30;;;;;;;2.90;73.46;96969.09;102772;1318;97998;-70
2021/11/27 08:43:48;;;;;;;35.00;18.40;;;;;;;2.93;73.36;96970.91;102754;1323;107804;-71
2021/11/27 08:46:16;;;;;;;36.50;18.70;;;;;;;2.96;73.33;96968.25;102797;1319;97951;-71
2021/11/27 08:48:44;;;;;;;32.90;18.70;;;;;;;3.00;73.67;96971.70;102762;1319;97965;-71
2021/11/27 08:51:14;;;;;;;40.20;17.90;;;;;;;3.03;73.57;96973.50;102825;1319;111335;-71
2021/11/27 08:53:42;;;;;;;33.00;17.00;;;;;;;3.08;73.77;96978.04;102784;1319;97908;-70
2021/11/27 08:56:11;;;;;;;34.90;18.70;;;;;;;3.11;73.37;96977.98;102688;1319;108311;-73
2021/11/27 08:58:40;;;;;;;32.40;16.80;;;;;;;3.15;73.65;96977.22;102699;1321;98362;-69
2021/11/27 09:01:12;;;;;;;32.40;17.40;;;;;;;3.18;73.66;96980.14;102944;1323;96533;-69
2021/11/27 09:03:42;;;;;;;35.00;18.80;;;;;;;3.20;73.42;96989.58;102888;1322;111872;-69
2021/11/27 09:06:11;;;;;;;34.50;17.60;;;;;;;3.23;73.49;96993.69;102794;1322;97904;-69
2021/11/27 09:08:41;;;;;;;33.30;17.60;;;;;;;3.30;73.49;96992.71;102905;1319;107520;-69
2021/11/27 09:11:13;;;;;;;32.60;17.10;;;;;;;3.38;73.37;96993.85;102974;1326;98047;-69
2021/11/27 09:13:44;;;;;;;31.60;16.70;;;;;;;3.47;73.45;96992.99;103046;1320;97320;-69
2021/11/27 09:16:11;;;;;;;32.60;17.60;;;;;;;3.55;73.56;96991.81;102809;1322;111507;-69
2021/11/27 09:19:05;;;;;;;37.80;19.40;;;;;;;3.60;73.44;96989.86;102912;1319;98092;-69
2021/11/27 09:21:35;;;;;;;33.80;16.90;;;;;;;3.64;73.49;96992.73;102956;1322;108530;-69
2021/11/27 09:24:09;;;;;;;31.60;17.00;;;;;;;3.67;73.33;96992.11;102687;1322;97959;-76
2021/11/27 09:26:38;;;;;;;35.00;18.70;;;;;;;3.70;73.47;96981.72;102956;1319;97933;-68
2021/11/27 09:29:09;;;;;;;32.90;17.80;;;;;;;3.73;73.63;96986.59;102783;1321;111629;-69
2021/11/27 09:31:40;;;;;;;35.70;17.80;;;;;;;3.74;73.40;96987.39;102634;1322;98814;-68
2021/11/27 09:34:11;;;;;;;32.90;17.80;;;;;;;3.75;73.47;96989.59;102783;1322;107233;-70
2021/11/27 09:36:41;;;;;;;33.90;18.10;;;;;;;3.77;73.39;96987.70;102728;1321;97879;-69
2021/11/27 09:39:13;;;;;;;33.40;17.10;;;;;;;3.81;73.38;96984.97;102814;1318;98004;-70
2021/11/27 09:41:44;;;;;;;32.40;17.30;;;;;;;3.85;73.66;96985.67;102868;1319;111431;-70
2021/11/27 09:44:17;;;;;;;32.40;16.90;;;;;;;3.86;73.52;96984.36;102936;1323;99093;-71
2021/11/27 09:46:47;;;;;;;32.70;17.20;;;;;;;3.85;73.23;96984.81;102937;1319;107917;-70
2021/11/27 09:49:20;;;;;;;33.10;16.70;;;;;;;3.82;73.29;96989.41;102993;1322;97876;-70
2021/11/27 09:51:53;;;;;;;31.80;16.50;;;;;;;3.79;73.05;96989.66;102935;1319;98319;-70
2021/11/27 09:54:23;;;;;;;30.50;15.60;;;;;;;3.78;73.21;96989.90;102820;1325;112439;-70
2021/11/27 09:56:55;;;;;;;34.80;16.40;;;;;;;3.81;73.40;97002.48;102891;1319;96504;-72
2021/11/27 09:59:23;;;;;;;29.40;15.00;;;;;;;3.83;73.37;97000.92;102783;1325;107788;-72
2021/11/27 10:01:52;;;;;;;28.80;14.80;;;;;;;3.84;73.32;97002.60;102871;1318;96714;-69
2021/11/27 10:04:23;;;;;;;28.80;14.30;;;;;;;3.85;73.29;97006.16;102817;1316;97785;-70
2021/11/27 10:06:51;;;;;;;29.10;14.40;;;;;;;3.87;73.26;97007.73;102648;1322;110528;-69
2021/11/27 10:09:24;;;;;;;29.40;14.60;;;;;;;3.87;73.04;97007.56;102992;1322;97735;-69
2021/11/27 10:11:54;;;;;;;30.20;15.20;;;;;;;3.87;73.23;97013.35;102777;1320;108527;-69
2021/11/27 10:14:23;;;;;;;29.60;14.20;;;;;;;3.86;73.06;97018.85;102877;1319;97970;-69
2021/11/27 10:16:57;;;;;;;31.60;15.40;;;;;;;3.89;73.43;97026.21;102718;1321;98204;-70
2021/11/27 10:19:44;;;;;;;31.80;15.60;;;;;;;3.96;73.53;97031.42;102787;1321;110991;-68
2021/11/27 10:22:15;;;;;;;30.20;15.80;;;;;;;4.08;73.46;97031.80;102731;1318;98545;-68
2021/11/27 10:24:47;;;;;;;30.70;14.30;;;;;;;4.07;73.21;97036.23;102764;1322;107855;-70
2021/11/27 10:27:23;;;;;;;29.30;15.20;;;;;;;4.09;73.26;97040.77;102774;1322;97938;-69
2021/11/27 10:30:10;;;;;;;34.40;16.20;;;;;;;4.13;73.24;97042.41;102787;1318;97906;-70
2021/11/27 10:32:41;;;;;;;29.40;15.80;;;;;;;4.13;73.18;97042.02;102827;1319;110509;-68
2021/11/27 10:35:13;;;;;;;33.70;17.10;;;;;;;4.11;73.08;97046.58;102655;1322;95993;-69
2021/11/27 10:37:59;;;;;;;32.00;16.10;;;;;;;4.09;73.12;97046.72;102768;1318;107985;-69
2021/11/27 10:40:32;;;;;;;32.10;16.30;;;;;;;4.06;73.14;97045.90;102873;1319;95216;-68
2021/11/27 10:43:06;;;;;;;33.10;16.60;;;;;;;4.04;73.07;97043.31;102757;1318;97071;-67
2021/11/27 10:45:38;;;;;;;32.80;16.50;;;;;;;4.04;73.05;97036.27;104115;1323;111583;-68
2021/11/27 10:48:14;;;;;;;31.60;15.80;;;;;;;4.02;72.91;97032.73;104476;1318;96091;-68
2021/11/27 10:51:04;;;;;;;34.10;18.00;;;;;;;4.03;72.83;97032.14;103211;1319;105485;-70
2021/11/27 10:53:37;;;;;;;31.30;16.40;;;;;;;4.06;73.04;97035.41;102553;1321;98014;-69
2021/11/27 10:56:09;;;;;;;31.70;15.90;;;;;;;4.07;73.04;97038.19;102733;1318;97962;-69
2021/11/27 10:58:59;;;;;;;33.00;17.50;;;;;;;4.05;72.78;97045.46;102775;1318;111540;-72
2021/11/27 11:01:28;;;;;;;31.40;16.50;;;;;;;4.07;72.94;97048.82;102823;1322;95325;-68
2021/11/27 11:04:17;;;;;;;32.20;16.60;;;;;;;4.09;72.94;97049.23;102817;1318;106940;-69
2021/11/27 11:06:46;;;;;;;32.20;15.60;;;;;;;4.12;73.06;97049.69;102769;1318;97896;-70
2021/11/27 11:09:15;;;;;;;31.10;15.10;;;;;;;4.14;72.80;97049.66;102817;1319;98023;-69
2021/11/27 11:11:46;;;;;;;31.60;15.60;;;;;;;4.17;73.11;97048.75;102848;1318;111993;-68
2021/11/27 11:14:25;;;;;;;30.60;15.30;;;;;;;4.21;72.88;97058.46;102822;1318;98019;-68
2021/11/27 11:17:00;;;;;;;29.80;14.40;;;;;;;4.22;73.05;97061.69;102760;1324;108530;-68
2021/11/27 11:19:31;;;;;;;29.30;14.90;;;;;;;4.23;72.92;97067.80;102862;1322;96621;-68
2021/11/27 11:22:17;;;;;;;28.30;14.90;;;;;;;4.23;72.92;97069.16;102913;1321;95250;-67
2021/11/27 11:24:46;;;;;;;29.30;14.40;;;;;;;4.25;72.99;97065.69;102875;1316;112242;-68
2021/11/27 11:27:32;;;;;;;27.30;13.90;;;;;;;4.26;73.03;97064.79;102755;1321;97922;-70
2021/11/27 11:30:02;;;;;;;28.70;14.90;;;;;;;4.27;72.93;97070.45;102682;1322;108128;-69
2021/11/27 11:32:31;;;;;;;31.60;15.60;;;;;;;4.28;72.89;97063.16;102617;1319;98007;-68